sensor_id;sensor_type;location;lat;lon;timestamp;pressure;altitude;pressure_sealevel;temperature;humidity
78354;BME280;67629;46.040;18.232;2024-01-11T00:04:26;101109.84;;;-5.53;90.51
78354;BME280;67629;46.040;18.232;2024-01-11T00:04:57;101113.28;;;-5.51;90.15
78354;BME280;67629;46.040;18.232;2024-01-11T00:05:27;101108.16;;;-5.54;90.14
78354;BME280;67629;46.040;18.232;2024-01-11T00:06:00;101117.75;;;-5.52;89.78
78354;BME280;67629;46.040;18.232;2024-01-11T00:06:31;101109.97;;;-5.55;89.72
78354;BME280;67629;46.040;18.232;2024-01-11T00:07:02;101107.09;;;-5.52;89.99
78354;BME280;67629;46.040;18.232;2024-01-11T00:07:32;101111.44;;;-5.51;90.21
78354;BME280;67629;46.040;18.232;2024-01-11T00:08:03;101112.44;;;-5.52;89.71
78354;BME280;67629;46.040;18.232;2024-01-11T00:08:34;101108.16;;;-5.54;90.34
78354;BME280;67629;46.040;18.232;2024-01-11T00:09:05;101112.31;;;-5.50;89.88
78354;BME280;67629;46.040;18.232;2024-01-11T00:09:42;101104.53;;;-5.53;90.30
78354;BME280;67629;46.040;18.232;2024-01-11T00:10:13;101110.63;;;-5.51;89.97
78354;BME280;67629;46.040;18.232;2024-01-11T00:10:43;101112.50;;;-5.53;90.59
78354;BME280;67629;46.040;18.232;2024-01-11T00:11:14;101113.50;;;-5.54;90.08
78354;BME280;67629;46.040;18.232;2024-01-11T00:11:44;101104.84;;;-5.58;90.13
78354;BME280;67629;46.040;18.232;2024-01-11T00:12:15;101109.22;;;-5.57;90.53
78354;BME280;67629;46.040;18.232;2024-01-11T00:12:46;101107.53;;;-5.58;89.93
78354;BME280;67629;46.040;18.232;2024-01-11T00:13:17;101104.75;;;-5.56;90.41
78354;BME280;67629;46.040;18.232;2024-01-11T00:13:47;101104.75;;;-5.56;90.46
78354;BME280;67629;46.040;18.232;2024-01-11T00:15:45;101107.31;;;-5.55;90.33
78354;BME280;67629;46.040;18.232;2024-01-11T00:16:16;101105.59;;;-5.56;90.18
78354;BME280;67629;46.040;18.232;2024-01-11T00:16:46;101112.72;;;-5.56;90.18
78354;BME280;67629;46.040;18.232;2024-01-11T00:17:17;101111.13;;;-5.59;90.08
78354;BME280;67629;46.040;18.232;2024-01-11T00:17:48;101111.78;;;-5.55;89.88
78354;BME280;67629;46.040;18.232;2024-01-11T00:18:18;101104.31;;;-5.63;90.67
78354;BME280;67629;46.040;18.232;2024-01-11T00:18:49;101111.53;;;-5.65;90.08
78354;BME280;67629;46.040;18.232;2024-01-11T00:19:20;101105.47;;;-5.67;90.23
78354;BME280;67629;46.040;18.232;2024-01-11T00:19:50;101102.94;;;-5.68;90.54
78354;BME280;67629;46.040;18.232;2024-01-11T00:20:21;101111.00;;;-5.70;90.13
78354;BME280;67629;46.040;18.232;2024-01-11T00:20:52;101101.44;;;-5.72;89.94
78354;BME280;67629;46.040;18.232;2024-01-11T00:21:23;101106.88;;;-5.74;90.44
78354;BME280;67629;46.040;18.232;2024-01-11T00:21:53;101105.25;;;-5.77;90.38
78354;BME280;67629;46.040;18.232;2024-01-11T00:22:24;101107.06;;;-5.77;90.41
78354;BME280;67629;46.040;18.232;2024-01-11T00:22:55;101091.94;;;-5.77;90.12
78354;BME280;67629;46.040;18.232;2024-01-11T00:23:25;101096.63;;;-5.80;90.65
78354;BME280;67629;46.040;18.232;2024-01-11T00:23:56;101103.66;;;-5.79;90.02
78354;BME280;67629;46.040;18.232;2024-01-11T00:24:27;101100.69;;;-5.87;90.59
78354;BME280;67629;46.040;18.232;2024-01-11T00:30:31;101100.72;;;-6.14;92.23
78354;BME280;67629;46.040;18.232;2024-01-11T00:31:02;101086.69;;;-6.16;92.30
78354;BME280;67629;46.040;18.232;2024-01-11T00:31:33;101095.19;;;-6.11;92.66
78354;BME280;67629;46.040;18.232;2024-01-11T00:32:04;101090.28;;;-6.17;92.52
78354;BME280;67629;46.040;18.232;2024-01-11T00:32:35;101087.41;;;-6.14;92.51
78354;BME280;67629;46.040;18.232;2024-01-11T00:33:05;101091.06;;;-6.15;92.18
78354;BME280;67629;46.040;18.232;2024-01-11T00:33:37;101092.13;;;-6.17;92.02
78354;BME280;67629;46.040;18.232;2024-01-11T00:34:08;101096.16;;;-6.12;91.69
78354;BME280;67629;46.040;18.232;2024-01-11T00:34:39;101084.47;;;-6.09;92.08
78354;BME280;67629;46.040;18.232;2024-01-11T00:35:09;101094.25;;;-6.10;92.27
78354;BME280;67629;46.040;18.232;2024-01-11T00:35:40;101083.75;;;-6.11;91.93
78354;BME280;67629;46.040;18.232;2024-01-11T00:36:17;101086.16;;;-6.08;91.94
78354;BME280;67629;46.040;18.232;2024-01-11T00:36:49;101081.63;;;-6.06;91.58
78354;BME280;67629;46.040;18.232;2024-01-11T00:37:20;101071.84;;;-6.06;91.68
78354;BME280;67629;46.040;18.232;2024-01-11T00:37:51;101088.41;;;-6.02;91.49
78354;BME280;67629;46.040;18.232;2024-01-11T00:38:22;101082.81;;;-5.98;91.51
78354;BME280;67629;46.040;18.232;2024-01-11T00:38:52;101081.09;;;-5.99;91.46
78354;BME280;67629;46.040;18.232;2024-01-11T00:39:23;101076.41;;;-5.95;91.45
78354;BME280;67629;46.040;18.232;2024-01-11T00:39:53;101085.91;;;-5.91;91.55
78354;BME280;67629;46.040;18.232;2024-01-11T00:40:55;101082.69;;;-5.96;91.57
78354;BME280;67629;46.040;18.232;2024-01-11T00:41:25;101077.16;;;-5.93;91.19
78354;BME280;67629;46.040;18.232;2024-01-11T00:41:56;101078.66;;;-5.89;91.22
78354;BME280;67629;46.040;18.232;2024-01-11T00:42:27;101087.50;;;-5.89;91.54
78354;BME280;67629;46.040;18.232;2024-01-11T00:42:57;101075.34;;;-5.93;91.29
78354;BME280;67629;46.040;18.232;2024-01-11T00:43:28;101073.44;;;-5.91;91.49
78354;BME280;67629;46.040;18.232;2024-01-11T00:43:59;101077.69;;;-5.88;91.14
78354;BME280;67629;46.040;18.232;2024-01-11T00:44:29;101081.81;;;-5.84;90.89
78354;BME280;67629;46.040;18.232;2024-01-11T00:45:00;101080.03;;;-5.84;90.83
78354;BME280;67629;46.040;18.232;2024-01-11T00:45:31;101069.63;;;-5.87;91.32
78354;BME280;67629;46.040;18.232;2024-01-11T00:46:02;101073.84;;;-5.84;90.71
78354;BME280;67629;46.040;18.232;2024-01-11T00:46:33;101078.97;;;-5.81;90.62
78354;BME280;67629;46.040;18.232;2024-01-11T00:47:04;101078.22;;;-5.83;90.62
78354;BME280;67629;46.040;18.232;2024-01-11T00:47:35;101083.34;;;-5.80;90.52
78354;BME280;67629;46.040;18.232;2024-01-11T00:48:05;101079.69;;;-5.79;90.85
78354;BME280;67629;46.040;18.232;2024-01-11T00:48:36;101078.75;;;-5.78;90.50
78354;BME280;67629;46.040;18.232;2024-01-11T00:49:07;101077.91;;;-5.79;90.40
78354;BME280;67629;46.040;18.232;2024-01-11T00:49:38;101080.56;;;-5.79;90.55
78354;BME280;67629;46.040;18.232;2024-01-11T00:55:15;101069.50;;;-5.72;89.34
78354;BME280;67629;46.040;18.232;2024-01-11T00:55:46;101072.91;;;-5.70;89.84
78354;BME280;67629;46.040;18.232;2024-01-11T00:56:18;101066.63;;;-5.69;89.39
78354;BME280;67629;46.040;18.232;2024-01-11T00:56:49;101066.50;;;-5.68;90.03
78354;BME280;67629;46.040;18.232;2024-01-11T00:57:19;101077.06;;;-5.66;89.65
78354;BME280;67629;46.040;18.232;2024-01-11T00:57:50;101071.75;;;-5.66;89.32
78354;BME280;67629;46.040;18.232;2024-01-11T00:58:21;101068.97;;;-5.65;89.36
78354;BME280;67629;46.040;18.232;2024-01-11T00:58:52;101073.47;;;-5.65;89.29
78354;BME280;67629;46.040;18.232;2024-01-11T00:59:23;101071.75;;;-5.66;89.58
78354;BME280;67629;46.040;18.232;2024-01-11T00:59:53;101063.84;;;-5.68;89.41
78354;BME280;67629;46.040;18.232;2024-01-11T01:00:24;101068.13;;;-5.65;88.99
78354;BME280;67629;46.040;18.232;2024-01-11T01:00:55;101072.41;;;-5.63;89.17
78354;BME280;67629;46.040;18.232;2024-01-11T01:01:26;101069.72;;;-5.63;89.36
78354;BME280;67629;46.040;18.232;2024-01-11T01:01:56;101061.97;;;-5.66;89.32
78354;BME280;67629;46.040;18.232;2024-01-11T01:02:27;101064.41;;;-5.63;89.26
78354;BME280;67629;46.040;18.232;2024-01-11T01:02:58;101059.19;;;-5.64;89.33
78354;BME280;67629;46.040;18.232;2024-01-11T01:03:28;101058.97;;;-5.61;88.96
78354;BME280;67629;46.040;18.232;2024-01-11T01:03:59;101063.13;;;-5.57;89.25
78354;BME280;67629;46.040;18.232;2024-01-11T01:04:30;101069.41;;;-5.58;88.91
78354;BME280;67629;46.040;18.232;2024-01-11T01:05:00;101066.44;;;-5.54;89.12
78354;BME280;67629;46.040;18.232;2024-01-11T01:05:31;101060.47;;;-5.57;88.81
78354;BME280;67629;46.040;18.232;2024-01-11T01:06:02;101056.84;;;-5.56;89.10
78354;BME280;67629;46.040;18.232;2024-01-11T01:06:33;101064.09;;;-5.58;88.51
78354;BME280;67629;46.040;18.232;2024-01-11T01:07:04;101056.22;;;-5.60;88.93
78354;BME280;67629;46.040;18.232;2024-01-11T01:07:34;101063.44;;;-5.62;88.53
78354;BME280;67629;46.040;18.232;2024-01-11T01:08:05;101063.44;;;-5.62;88.39
78354;BME280;67629;46.040;18.232;2024-01-11T01:08:36;101068.53;;;-5.59;88.60
78354;BME280;67629;46.040;18.232;2024-01-11T01:09:06;101060.47;;;-5.57;88.45
78354;BME280;67629;46.040;18.232;2024-01-11T01:09:38;101067.38;;;-5.55;88.01
78354;BME280;67629;46.040;18.232;2024-01-11T01:10:08;101069.31;;;-5.57;87.95
78354;BME280;67629;46.040;18.232;2024-01-11T01:10:39;101071.31;;;-5.60;88.37
78354;BME280;67629;46.040;18.232;2024-01-11T01:11:10;101060.91;;;-5.63;88.40
78354;BME280;67629;46.040;18.232;2024-01-11T01:11:41;101070.25;;;-5.58;88.61
78354;BME280;67629;46.040;18.232;2024-01-11T01:12:11;101073.88;;;-5.59;88.00
78354;BME280;67629;46.040;18.232;2024-01-11T01:12:42;101069.41;;;-5.58;88.53
78354;BME280;67629;46.040;18.232;2024-01-11T01:13:13;101064.28;;;-5.61;88.28
78354;BME280;67629;46.040;18.232;2024-01-11T01:13:44;101064.94;;;-5.58;88.03
78354;BME280;67629;46.040;18.232;2024-01-11T01:14:14;101064.09;;;-5.58;88.35
78354;BME280;67629;46.040;18.232;2024-01-11T01:14:45;101064.09;;;-5.58;88.66
78354;BME280;67629;46.040;18.232;2024-01-11T01:15:15;101066.31;;;-5.65;88.13
78354;BME280;67629;46.040;18.232;2024-01-11T01:15:46;101069.19;;;-5.68;88.37
78354;BME280;67629;46.040;18.232;2024-01-11T01:16:17;101067.91;;;-5.75;88.42
78354;BME280;67629;46.040;18.232;2024-01-11T01:16:48;101055.47;;;-5.74;88.20
78354;BME280;67629;46.040;18.232;2024-01-11T01:17:18;101063.03;;;-5.68;88.76
78354;BME280;67629;46.040;18.232;2024-01-11T01:17:49;101065.56;;;-5.67;88.29
78354;BME280;67629;46.040;18.232;2024-01-11T01:18:20;101062.16;;;-5.69;88.24
78354;BME280;67629;46.040;18.232;2024-01-11T01:18:51;101065.56;;;-5.67;88.41
78354;BME280;67629;46.040;18.232;2024-01-11T01:19:21;101065.56;;;-5.67;88.85
78354;BME280;67629;46.040;18.232;2024-01-11T01:19:52;101063.13;;;-5.70;88.94
78354;BME280;67629;46.040;18.232;2024-01-11T01:20:23;101060.66;;;-5.73;88.96
78354;BME280;67629;46.040;18.232;2024-01-11T01:20:53;101062.59;;;-5.75;88.84
78354;BME280;67629;46.040;18.232;2024-01-11T01:21:24;101058.34;;;-5.78;88.48
78354;BME280;67629;46.040;18.232;2024-01-11T01:21:55;101058.34;;;-5.78;88.52
78354;BME280;67629;46.040;18.232;2024-01-11T01:22:26;101062.69;;;-5.77;88.60
78354;BME280;67629;46.040;18.232;2024-01-11T01:22:56;101073.97;;;-5.73;88.23
78354;BME280;67629;46.040;18.232;2024-01-11T01:23:27;101070.56;;;-5.75;88.36
78354;BME280;67629;46.040;18.232;2024-01-11T01:23:58;101053.97;;;-5.79;88.61
78354;BME280;67629;46.040;18.232;2024-01-11T01:24:28;101058.63;;;-5.82;88.42
78354;BME280;67629;46.040;18.232;2024-01-11T01:24:59;101069.06;;;-5.79;88.41
78354;BME280;67629;46.040;18.232;2024-01-11T01:25:30;101061.28;;;-5.82;88.59
78354;BME280;67629;46.040;18.232;2024-01-11T01:26:00;101059.31;;;-5.91;88.77
78354;BME280;67629;46.040;18.232;2024-01-11T01:26:31;101053.53;;;-5.98;88.98
78354;BME280;67629;46.040;18.232;2024-01-11T01:27:02;101056.28;;;-5.99;89.04
78354;BME280;67629;46.040;18.232;2024-01-11T01:27:33;101062.59;;;-6.00;89.30
78354;BME280;67629;46.040;18.232;2024-01-11T01:28:03;101067.91;;;-6.00;89.75
78354;BME280;67629;46.040;18.232;2024-01-11T01:28:49;101068.19;;;-6.05;90.05
78354;BME280;67629;46.040;18.232;2024-01-11T01:34:37;101056.50;;;-6.02;89.99
78354;BME280;67629;46.040;18.232;2024-01-11T01:35:08;101049.69;;;-6.06;90.02
78354;BME280;67629;46.040;18.232;2024-01-11T01:35:39;101047.25;;;-6.09;90.68
78354;BME280;67629;46.040;18.232;2024-01-11T01:36:10;101047.13;;;-6.08;90.06
78354;BME280;67629;46.040;18.232;2024-01-11T01:36:41;101057.47;;;-6.03;90.46
78354;BME280;67629;46.040;18.232;2024-01-11T01:37:11;101062.59;;;-6.00;90.37
78354;BME280;67629;46.040;18.232;2024-01-11T01:37:42;101058.22;;;-6.01;89.99
78354;BME280;67629;46.040;18.232;2024-01-11T01:38:13;101058.34;;;-6.03;90.05
78354;BME280;67629;46.040;18.232;2024-01-11T01:38:44;101064.28;;;-5.99;90.44
78354;BME280;67629;46.040;18.232;2024-01-11T01:39:15;101051.19;;;-6.02;90.44
78354;BME280;67629;46.040;18.232;2024-01-11T01:39:46;101060.56;;;-5.97;90.43
78354;BME280;67629;46.040;18.232;2024-01-11T01:40:17;101064.84;;;-5.94;90.56
78354;BME280;67629;46.040;18.232;2024-01-11T01:40:47;101066.44;;;-5.92;90.63
78354;BME280;67629;46.040;18.232;2024-01-11T01:41:18;101060.47;;;-5.95;90.48
78354;BME280;67629;46.040;18.232;2024-01-11T01:41:48;101055.03;;;-5.94;90.54
78354;BME280;67629;46.040;18.232;2024-01-11T01:42:20;101063.66;;;-5.90;90.46
78354;BME280;67629;46.040;18.232;2024-01-11T01:42:58;101059.94;;;-5.88;90.18
78354;BME280;67629;46.040;18.232;2024-01-11T01:43:29;101049.63;;;-5.92;90.69
78354;BME280;67629;46.040;18.232;2024-01-11T01:44:00;101054.19;;;-5.94;90.30
78354;BME280;67629;46.040;18.232;2024-01-11T01:44:30;101057.28;;;-5.88;90.39
78354;BME280;67629;46.040;18.232;2024-01-11T01:45:01;101047.81;;;-5.92;90.27
78354;BME280;67629;46.040;18.232;2024-01-11T01:45:31;101056.41;;;-5.88;90.41
78354;BME280;67629;46.040;18.232;2024-01-11T01:46:03;101047.69;;;-5.90;90.72
78354;BME280;67629;46.040;18.232;2024-01-11T01:46:36;101053.00;;;-5.90;90.58
78354;BME280;67629;46.040;18.232;2024-01-11T01:47:09;101052.94;;;-5.89;90.65
78354;BME280;67629;46.040;18.232;2024-01-11T01:47:42;101058.25;;;-5.89;90.67
78354;BME280;67629;46.040;18.232;2024-01-11T01:48:13;101047.59;;;-5.89;90.55
78354;BME280;67629;46.040;18.232;2024-01-11T01:48:44;101053.53;;;-5.85;90.18
78354;BME280;67629;46.040;18.232;2024-01-11T01:49:15;101061.41;;;-5.84;90.45
78354;BME280;67629;46.040;18.232;2024-01-11T01:49:48;101059.41;;;-5.80;89.82
78354;BME280;67629;46.040;18.232;2024-01-11T01:50:20;101051.50;;;-5.82;90.13
78354;BME280;67629;46.040;18.232;2024-01-11T01:50:51;101047.25;;;-5.84;89.85
78354;BME280;67629;46.040;18.232;2024-01-11T01:51:23;101054.91;;;-5.80;90.04
78354;BME280;67629;46.040;18.232;2024-01-11T01:51:55;101051.22;;;-5.77;89.54
78354;BME280;67629;46.040;18.232;2024-01-11T01:52:26;101048.56;;;-5.77;89.96
78354;BME280;67629;46.040;18.232;2024-01-11T01:53:28;101057.25;;;-5.75;89.81
78354;BME280;67629;46.040;18.232;2024-01-11T01:54:00;101054.59;;;-5.75;89.58
78354;BME280;67629;46.040;18.232;2024-01-11T01:54:33;101056.09;;;-5.71;89.72
78354;BME280;67629;46.040;18.232;2024-01-11T01:55:05;101048.22;;;-5.72;89.45
78354;BME280;67629;46.040;18.232;2024-01-11T01:55:37;101057.06;;;-5.72;89.13
78354;BME280;67629;46.040;18.232;2024-01-11T01:56:08;101060.25;;;-5.67;89.46
78354;BME280;67629;46.040;18.232;2024-01-11T01:56:40;101058.66;;;-5.69;89.26
78354;BME280;67629;46.040;18.232;2024-01-11T01:57:11;101051.53;;;-5.69;88.92
78354;BME280;67629;46.040;18.232;2024-01-11T01:57:44;101056.63;;;-5.66;88.85
78354;BME280;67629;46.040;18.232;2024-01-11T01:58:17;101061.09;;;-5.66;88.93
78354;BME280;67629;46.040;18.232;2024-01-11T01:58:51;101050.47;;;-5.66;89.07
78354;BME280;67629;46.040;18.232;2024-01-11T01:59:24;101056.50;;;-5.64;88.99
78354;BME280;67629;46.040;18.232;2024-01-11T01:59:56;101057.59;;;-5.67;88.71
78354;BME280;67629;46.040;18.232;2024-01-11T02:00:27;101050.47;;;-5.66;88.97
78354;BME280;67629;46.040;18.232;2024-01-11T02:00:58;101053.41;;;-5.71;88.96
78354;BME280;67629;46.040;18.232;2024-01-11T02:01:29;101062.25;;;-5.70;89.06
78354;BME280;67629;46.040;18.232;2024-01-11T02:02:01;101058.75;;;-5.71;88.88
78354;BME280;67629;46.040;18.232;2024-01-11T02:02:34;101068.56;;;-5.71;88.90
78354;BME280;67629;46.040;18.232;2024-01-11T02:03:05;101061.31;;;-5.69;88.97
78354;BME280;67629;46.040;18.232;2024-01-11T02:03:37;101062.38;;;-5.72;88.89
78354;BME280;67629;46.040;18.232;2024-01-11T02:04:08;101057.06;;;-5.72;88.33
78354;BME280;67629;46.040;18.232;2024-01-11T02:04:39;101058.97;;;-5.74;88.82
78354;BME280;67629;46.040;18.232;2024-01-11T02:05:11;101058.66;;;-5.69;88.27
78354;BME280;67629;46.040;18.232;2024-01-11T02:05:43;101060.66;;;-5.73;88.75
78354;BME280;67629;46.040;18.232;2024-01-11T02:06:14;101064.31;;;-5.74;88.36
78354;BME280;67629;46.040;18.232;2024-01-11T02:06:46;101049.22;;;-5.86;88.45
78354;BME280;67629;46.040;18.232;2024-01-11T02:07:18;101053.00;;;-5.90;88.55
78354;BME280;67629;46.040;18.232;2024-01-11T02:07:49;101061.53;;;-5.85;89.10
78354;BME280;67629;46.040;18.232;2024-01-11T02:08:22;101053.00;;;-5.90;88.91
78354;BME280;67629;46.040;18.232;2024-01-11T02:08:56;101057.59;;;-5.92;88.92
78354;BME280;67629;46.040;18.232;2024-01-11T02:09:28;101044.50;;;-5.95;88.90
78354;BME280;67629;46.040;18.232;2024-01-11T02:09:59;101056.00;;;-5.95;89.05
78354;BME280;67629;46.040;18.232;2024-01-11T02:10:32;101056.66;;;-5.91;88.77
78354;BME280;67629;46.040;18.232;2024-01-11T02:11:03;101058.53;;;-5.93;89.31
78354;BME280;67629;46.040;18.232;2024-01-11T02:11:34;101060.13;;;-6.03;89.20
78354;BME280;67629;46.040;18.232;2024-01-11T02:12:05;101056.09;;;-6.09;89.57
78354;BME280;67629;46.040;18.232;2024-01-11T02:12:36;101059.81;;;-6.11;89.96
78354;BME280;67629;46.040;18.232;2024-01-11T02:13:11;101054.50;;;-6.11;89.21
78354;BME280;67629;46.040;18.232;2024-01-11T02:13:58;101050.34;;;-6.03;89.32
78354;BME280;67629;46.040;18.232;2024-01-11T02:14:29;101059.06;;;-6.01;89.46
78354;BME280;67629;46.040;18.232;2024-01-11T02:15:16;101056.50;;;-6.02;89.11
78354;BME280;67629;46.040;18.232;2024-01-11T02:16:01;101058.88;;;-5.98;89.24
78354;BME280;67629;46.040;18.232;2024-01-11T02:16:32;101050.03;;;-5.98;89.46
78354;BME280;67629;46.040;18.232;2024-01-11T02:17:03;101050.88;;;-5.98;89.27
78354;BME280;67629;46.040;18.232;2024-01-11T02:17:34;101050.56;;;-5.93;89.63
78354;BME280;67629;46.040;18.232;2024-01-11T02:18:04;101066.44;;;-5.92;89.10
78354;BME280;67629;46.040;18.232;2024-01-11T02:18:35;101046.44;;;-5.97;89.38
78354;BME280;67629;46.040;18.232;2024-01-11T02:19:06;101064.63;;;-5.91;89.13
78354;BME280;67629;46.040;18.232;2024-01-11T02:19:38;101058.53;;;-5.93;89.00
78354;BME280;67629;46.040;18.232;2024-01-11T02:20:09;101052.38;;;-5.94;89.07
78354;BME280;67629;46.040;18.232;2024-01-11T02:20:40;101053.88;;;-5.90;88.86
78354;BME280;67629;46.040;18.232;2024-01-11T02:21:13;101060.06;;;-5.89;89.12
78354;BME280;67629;46.040;18.232;2024-01-11T02:21:48;101058.03;;;-5.86;89.22
78354;BME280;67629;46.040;18.232;2024-01-11T02:22:33;101053.66;;;-5.87;89.17
78354;BME280;67629;46.040;18.232;2024-01-11T02:23:08;101050.28;;;-5.89;88.91
78354;BME280;67629;46.040;18.232;2024-01-11T02:24:19;101054.63;;;-5.88;89.26
78354;BME280;67629;46.040;18.232;2024-01-11T02:24:50;101053.53;;;-5.85;88.97
78354;BME280;67629;46.040;18.232;2024-01-11T02:25:21;101049.41;;;-5.89;88.92
78354;BME280;67629;46.040;18.232;2024-01-11T02:25:51;101045.78;;;-5.88;88.65
78354;BME280;67629;46.040;18.232;2024-01-11T02:26:22;101054.63;;;-5.88;88.98
78354;BME280;67629;46.040;18.232;2024-01-11T02:27:03;101052.72;;;-5.86;88.68
78354;BME280;67629;46.040;18.232;2024-01-11T02:27:50;101052.72;;;-5.86;89.16
78354;BME280;67629;46.040;18.232;2024-01-11T02:28:21;101055.13;;;-5.83;89.03
78354;BME280;67629;46.040;18.232;2024-01-11T02:28:51;101052.72;;;-5.86;88.80
78354;BME280;67629;46.040;18.232;2024-01-11T02:29:22;101051.63;;;-5.83;88.32
78354;BME280;67629;46.040;18.232;2024-01-11T02:29:52;101050.66;;;-5.82;88.53
78354;BME280;67629;46.040;18.232;2024-01-11T02:30:23;101052.47;;;-5.83;88.59
78354;BME280;67629;46.040;18.232;2024-01-11T02:30:54;101050.06;;;-5.86;88.98
78354;BME280;67629;46.040;18.232;2024-01-11T02:36:37;101046.41;;;-5.85;89.62
78354;BME280;67629;46.040;18.232;2024-01-11T02:37:08;101051.72;;;-5.85;89.98
78354;BME280;67629;46.040;18.232;2024-01-11T02:37:39;101046.41;;;-5.85;89.67
78354;BME280;67629;46.040;18.232;2024-01-11T02:38:10;101054.16;;;-5.82;89.57
78354;BME280;67629;46.040;18.232;2024-01-11T02:38:41;101048.09;;;-5.84;89.83
78354;BME280;67629;46.040;18.232;2024-01-11T02:39:15;101050.66;;;-5.82;90.01
78354;BME280;67629;46.040;18.232;2024-01-11T02:39:47;101041.94;;;-5.84;89.55
78354;BME280;67629;46.040;18.232;2024-01-11T02:40:18;101048.75;;;-5.80;89.24
78354;BME280;67629;46.040;18.232;2024-01-11T02:40:49;101049.81;;;-5.83;89.36
78354;BME280;67629;46.040;18.232;2024-01-11T02:41:21;101046.31;;;-5.83;89.46
78354;BME280;67629;46.040;18.232;2024-01-11T02:41:56;101039.28;;;-5.84;89.30
78354;BME280;67629;46.040;18.232;2024-01-11T02:42:26;101033.94;;;-5.84;89.71
78354;BME280;67629;46.040;18.232;2024-01-11T02:42:58;101041.72;;;-5.81;89.22
78354;BME280;67629;46.040;18.232;2024-01-11T02:43:28;101047.03;;;-5.81;89.16
78354;BME280;67629;46.040;18.232;2024-01-11T02:44:00;101039.28;;;-5.84;89.62
78354;BME280;67629;46.040;18.232;2024-01-11T02:44:31;101043.44;;;-5.80;89.14
78354;BME280;67629;46.040;18.232;2024-01-11T02:45:05;101034.59;;;-5.81;89.56
78354;BME280;67629;46.040;18.232;2024-01-11T02:45:37;101036.28;;;-5.80;89.74
78354;BME280;67629;46.040;18.232;2024-01-11T02:51:14;101042.16;;;-5.87;89.69
78354;BME280;67629;46.040;18.232;2024-01-11T02:51:45;101037.72;;;-5.87;89.29
78354;BME280;67629;46.040;18.232;2024-01-11T02:52:15;101023.66;;;-5.89;88.94
78354;BME280;67629;46.040;18.232;2024-01-11T02:52:46;101034.31;;;-5.89;89.31
78354;BME280;67629;46.040;18.232;2024-01-11T02:53:16;101026.41;;;-5.90;89.31
78354;BME280;67629;46.040;18.232;2024-01-11T02:53:47;101031.53;;;-5.87;89.51
78354;BME280;67629;46.040;18.232;2024-01-11T02:54:18;101027.94;;;-5.86;89.33
78354;BME280;67629;46.040;18.232;2024-01-11T02:54:48;101031.28;;;-5.84;89.58
78354;BME280;67629;46.040;18.232;2024-01-11T02:55:20;101023.22;;;-5.83;89.51
78354;BME280;67629;46.040;18.232;2024-01-11T02:55:50;101012.81;;;-5.86;89.41
78354;BME280;67629;46.040;18.232;2024-01-11T02:56:21;101019.59;;;-5.82;89.44
78354;BME280;67629;46.040;18.232;2024-01-11T02:56:52;101010.66;;;-5.81;89.00
78354;BME280;67629;46.040;18.232;2024-01-11T02:57:22;101018.50;;;-5.79;88.62
78354;BME280;67629;46.040;18.232;2024-01-11T02:57:53;101008.31;;;-5.85;88.94
78354;BME280;67629;46.040;18.232;2024-01-11T02:58:24;101015.78;;;-5.90;89.39
78354;BME280;67629;46.040;18.232;2024-01-11T02:58:54;101010.75;;;-5.82;89.02
78354;BME280;67629;46.040;18.232;2024-01-11T02:59:25;101011.19;;;-5.88;88.85
78354;BME280;67629;46.040;18.232;2024-01-11T02:59:56;101015.25;;;-5.83;89.01
78354;BME280;67629;46.040;18.232;2024-01-11T03:00:26;101022.88;;;-5.78;89.31
78354;BME280;67629;46.040;18.232;2024-01-11T03:00:57;101020.09;;;-5.77;89.14
78354;BME280;67629;46.040;18.232;2024-01-11T03:01:28;101022.16;;;-5.80;88.62
78354;BME280;67629;46.040;18.232;2024-01-11T03:01:58;101009.59;;;-5.78;89.02
78354;BME280;67629;46.040;18.232;2024-01-11T03:02:29;101013.19;;;-5.79;88.79
78354;BME280;67629;46.040;18.232;2024-01-11T03:02:59;101015.13;;;-5.81;88.50
78354;BME280;67629;46.040;18.232;2024-01-11T03:03:30;101005.78;;;-5.87;88.89
78354;BME280;67629;46.040;18.232;2024-01-11T03:04:01;101015.00;;;-5.80;88.76
78354;BME280;67629;46.040;18.232;2024-01-11T03:04:32;101011.50;;;-5.80;88.60
78354;BME280;67629;46.040;18.232;2024-01-11T03:05:02;101012.47;;;-5.81;88.41
78354;BME280;67629;46.040;18.232;2024-01-11T03:05:33;101015.75;;;-5.78;88.71
78354;BME280;67629;46.040;18.232;2024-01-11T03:06:04;101011.19;;;-5.76;88.47
78354;BME280;67629;46.040;18.232;2024-01-11T03:06:34;101004.34;;;-5.80;88.67
78354;BME280;67629;46.040;18.232;2024-01-11T03:07:05;101010.44;;;-5.78;88.31
78354;BME280;67629;46.040;18.232;2024-01-11T03:07:35;101000.88;;;-5.80;88.55
78354;BME280;67629;46.040;18.232;2024-01-11T03:08:06;101005.13;;;-5.78;88.25
78354;BME280;67629;46.040;18.232;2024-01-11T03:08:37;101005.97;;;-5.77;88.50
78354;BME280;67629;46.040;18.232;2024-01-11T03:09:07;101008.94;;;-5.82;88.37
78354;BME280;67629;46.040;18.232;2024-01-11T03:09:38;101006.84;;;-5.89;88.59
78354;BME280;67629;46.040;18.232;2024-01-11T03:10:09;101003.53;;;-5.93;88.72
78354;BME280;67629;46.040;18.232;2024-01-11T03:10:39;100999.38;;;-5.97;88.83
78354;BME280;67629;46.040;18.232;2024-01-11T03:11:10;101009.81;;;-5.94;88.64
78354;BME280;67629;46.040;18.232;2024-01-11T03:11:40;101011.09;;;-5.87;88.70
78354;BME280;67629;46.040;18.232;2024-01-11T03:12:11;101012.59;;;-5.83;88.94
78354;BME280;67629;46.040;18.232;2024-01-11T03:12:42;101013.31;;;-5.81;88.62
78354;BME280;67629;46.040;18.232;2024-01-11T03:13:12;101014.06;;;-5.79;88.36
78354;BME280;67629;46.040;18.232;2024-01-11T03:13:43;101002.47;;;-5.78;88.98
78354;BME280;67629;46.040;18.232;2024-01-11T03:14:13;101006.94;;;-5.78;88.35
78354;BME280;67629;46.040;18.232;2024-01-11T03:14:44;101008.09;;;-5.82;88.44
78354;BME280;67629;46.040;18.232;2024-01-11T03:15:15;101007.44;;;-5.73;88.44
78354;BME280;67629;46.040;18.232;2024-01-11T03:15:46;101005.13;;;-5.78;88.25